sensor_id;sensor_type;location;lat;lon;timestamp;pressure;altitude;pressure_sealevel;temperature;humidity
62011;BME280;47967;51.756;10.174;2023-03-03T05:01:45;100451.38;;;-0.62;87.64
62011;BME280;47967;51.756;10.174;2023-03-03T05:05:48;100455.22;;;-0.67;87.47
62011;BME280;47967;51.756;10.174;2023-03-03T05:09:51;100448.72;;;-0.62;87.81
62011;BME280;47967;51.756;10.174;2023-03-03T05:13:53;100447.59;;;-0.71;87.61
62011;BME280;47967;51.756;10.174;2023-03-03T05:17:58;100454.16;;;-0.77;87.73
62011;BME280;47967;51.756;10.174;2023-03-03T05:22:00;100454.47;;;-0.69;87.74
62011;BME280;47967;51.756;10.174;2023-03-03T05:26:03;100453.63;;;-0.69;88.38
62011;BME280;47967;51.756;10.174;2023-03-03T05:30:07;100462.03;;;-0.75;88.03
62011;BME280;47967;51.756;10.174;2023-03-03T05:34:11;100454.28;;;-0.78;88.51
62011;BME280;47967;51.756;10.174;2023-03-03T05:38:14;100468.56;;;-0.68;88.74
62011;BME280;47967;51.756;10.174;2023-03-03T05:42:16;100463.84;;;-0.52;88.42
62011;BME280;47967;51.756;10.174;2023-03-03T05:46:19;100470.22;;;-0.54;87.84
62011;BME280;47967;51.756;10.174;2023-03-03T05:50:23;100473.63;;;-0.65;87.16
62011;BME280;47967;51.756;10.174;2023-03-03T05:54:26;100468.13;;;-0.62;87.16
62011;BME280;47967;51.756;10.174;2023-03-03T05:58:29;100477.34;;;-0.68;86.64
62011;BME280;47967;51.756;10.174;2023-03-03T06:02:31;100473.97;;;-0.70;86.57
62011;BME280;47967;51.756;10.174;2023-03-03T06:06:36;100470.34;;;-0.69;86.24
62011;BME280;47967;51.756;10.174;2023-03-03T06:10:39;100474.06;;;-0.58;85.73
62011;BME280;47967;51.756;10.174;2023-03-03T06:14:43;100476.66;;;-0.45;85.43
62011;BME280;47967;51.756;10.174;2023-03-03T06:18:46;100476.22;;;-0.39;84.99
62011;BME280;47967;51.756;10.174;2023-03-03T06:22:50;100479.00;;;-0.17;84.67
62011;BME280;47967;51.756;10.174;2023-03-03T06:26:52;100470.78;;;0.11;84.25
62011;BME280;47967;51.756;10.174;2023-03-03T06:30:56;100476.34;;;0.19;82.67
62011;BME280;47967;51.756;10.174;2023-03-03T06:34:58;100485.94;;;0.33;81.55
62011;BME280;47967;51.756;10.174;2023-03-03T06:39:02;100481.59;;;0.32;80.16
62011;BME280;47967;51.756;10.174;2023-03-03T06:43:05;100488.66;;;0.67;79.58
62011;BME280;47967;51.756;10.174;2023-03-03T06:47:07;100487.34;;;0.73;79.11
62011;BME280;47967;51.756;10.174;2023-03-03T06:51:20;100482.53;;;0.78;78.66
62011;BME280;47967;51.756;10.174;2023-03-03T06:55:25;100491.22;;;0.91;78.36
62011;BME280;47967;51.756;10.174;2023-03-03T06:59:27;100509.34;;;0.98;77.71
62011;BME280;47967;51.756;10.174;2023-03-03T07:03:32;100516.34;;;0.99;77.01
62011;BME280;47967;51.756;10.174;2023-03-03T07:07:35;100528.47;;;1.03;76.29
62011;BME280;47967;51.756;10.174;2023-03-03T07:11:39;100539.56;;;1.08;76.26
62011;BME280;47967;51.756;10.174;2023-03-03T07:15:42;100534.47;;;1.05;75.49
62011;BME280;47967;51.756;10.174;2023-03-03T07:19:45;100537.25;;;0.92;75.10
62011;BME280;47967;51.756;10.174;2023-03-03T07:23:48;100543.91;;;1.09;74.85
62011;BME280;47967;51.756;10.174;2023-03-03T07:27:55;100521.66;;;1.44;73.87
62011;BME280;47967;51.756;10.174;2023-03-03T07:32:00;100535.59;;;1.59;73.13
62011;BME280;47967;51.756;10.174;2023-03-03T07:36:17;100542.53;;;1.83;72.37
62011;BME280;47967;51.756;10.174;2023-03-03T07:40:33;100556.38;;;1.65;71.60
62011;BME280;47967;51.756;10.174;2023-03-03T07:44:38;100552.75;;;1.43;73.04
62011;BME280;47967;51.756;10.174;2023-03-03T07:48:41;100551.19;;;1.64;73.95
62011;BME280;47967;51.756;10.174;2023-03-03T07:52:45;100565.94;;;1.56;74.28
62011;BME280;47967;51.756;10.174;2023-03-03T07:56:54;100566.16;;;1.19;75.66
62011;BME280;47967;51.756;10.174;2023-03-03T08:05:35;100564.56;;;1.28;76.36
62011;BME280;47967;51.756;10.174;2023-03-03T08:09:43;100566.75;;;1.23;76.60
62011;BME280;47967;51.756;10.174;2023-03-03T08:13:48;100567.97;;;1.30;76.16
62011;BME280;47967;51.756;10.174;2023-03-03T08:17:52;100569.91;;;1.39;75.54
62011;BME280;47967;51.756;10.174;2023-03-03T08:21:59;100581.50;;;1.61;74.74
62011;BME280;47967;51.756;10.174;2023-03-03T08:26:04;100572.78;;;1.93;74.32
62011;BME280;47967;51.756;10.174;2023-03-03T08:30:08;100578.00;;;1.83;73.39
62011;BME280;47967;51.756;10.174;2023-03-03T08:34:11;100568.69;;;1.78;73.34
62011;BME280;47967;51.756;10.174;2023-03-03T08:38:17;100568.06;;;1.97;73.78
62011;BME280;47967;51.756;10.174;2023-03-03T08:42:20;100572.94;;;2.24;73.24
62011;BME280;47967;51.756;10.174;2023-03-03T08:46:22;100578.88;;;2.49;72.77
62011;BME280;47967;51.756;10.174;2023-03-03T08:50:25;100577.81;;;2.72;72.28
62011;BME280;47967;51.756;10.174;2023-03-03T08:54:29;100572.63;;;2.92;71.88
62011;BME280;47967;51.756;10.174;2023-03-03T08:58:32;100577.22;;;2.69;70.93
62011;BME280;47967;51.756;10.174;2023-03-03T09:02:37;100581.13;;;2.86;70.82
62011;BME280;47967;51.756;10.174;2023-03-03T09:06:39;100587.28;;;3.29;69.82
62011;BME280;47967;51.756;10.174;2023-03-03T09:10:43;100591.66;;;3.71;68.82
62011;BME280;47967;51.756;10.174;2023-03-03T09:14:46;100602.53;;;3.79;67.82
62011;BME280;47967;51.756;10.174;2023-03-03T09:18:48;100601.06;;;3.65;67.34
62011;BME280;47967;51.756;10.174;2023-03-03T09:22:51;100603.47;;;3.68;67.14
62011;BME280;47967;51.756;10.174;2023-03-03T09:26:55;100602.34;;;3.71;68.27
62011;BME280;47967;51.756;10.174;2023-03-03T09:31:01;100596.84;;;3.31;70.13
62011;BME280;47967;51.756;10.174;2023-03-03T09:35:33;100606.59;;;3.42;70.53
62011;BME280;47967;51.756;10.174;2023-03-03T09:39:37;100596.63;;;3.44;70.78
62011;BME280;47967;51.756;10.174;2023-03-03T09:43:48;100592.34;;;3.32;71.13
62011;BME280;47967;51.756;10.174;2023-03-03T09:48:11;100590.19;;;3.47;69.52
62011;BME280;47967;51.756;10.174;2023-03-03T09:52:28;100601.00;;;3.55;68.56
62011;BME280;47967;51.756;10.174;2023-03-03T09:56:38;100605.56;;;3.12;69.43
62011;BME280;47967;51.756;10.174;2023-03-03T10:00:54;100606.69;;;3.31;69.70
62011;BME280;47967;51.756;10.174;2023-03-03T10:05:11;100597.31;;;3.46;69.22
62011;BME280;47967;51.756;10.174;2023-03-03T10:09:39;100600.56;;;3.81;70.08
62011;BME280;47967;51.756;10.174;2023-03-03T10:14:05;100592.94;;;3.66;68.67
62011;BME280;47967;51.756;10.174;2023-03-03T10:18:23;100590.13;;;3.68;69.08
62011;BME280;47967;51.756;10.174;2023-03-03T10:22:41;100601.41;;;3.81;68.01
62011;BME280;47967;51.756;10.174;2023-03-03T10:27:06;100602.00;;;3.95;68.42
62011;BME280;47967;51.756;10.174;2023-03-03T10:31:22;100614.22;;;4.87;66.68
62011;BME280;47967;51.756;10.174;2023-03-03T10:35:38;100601.34;;;5.20;65.09
62011;BME280;47967;51.756;10.174;2023-03-03T10:40:16;100601.53;;;4.79;66.16
62011;BME280;47967;51.756;10.174;2023-03-03T10:44:29;100600.75;;;3.99;67.31
62011;BME280;47967;51.756;10.174;2023-03-03T10:49:00;100599.78;;;4.10;69.22
62011;BME280;47967;51.756;10.174;2023-03-03T10:53:20;100600.56;;;3.81;68.85
62011;BME280;47967;51.756;10.174;2023-03-03T10:57:29;100609.25;;;3.73;69.56
62011;BME280;47967;51.756;10.174;2023-03-03T11:01:42;100603.41;;;3.99;69.33
62011;BME280;47967;51.756;10.174;2023-03-03T11:05:50;100603.06;;;4.92;67.23
62011;BME280;47967;51.756;10.174;2023-03-03T11:10:03;100604.72;;;5.12;65.97
62011;BME280;47967;51.756;10.174;2023-03-03T11:14:10;100606.03;;;4.99;66.19
62011;BME280;47967;51.756;10.174;2023-03-03T11:18:21;100608.16;;;4.85;66.66
62011;BME280;47967;51.756;10.174;2023-03-03T11:22:33;100601.53;;;4.30;67.64
62011;BME280;47967;51.756;10.174;2023-03-03T11:26:59;100597.13;;;3.59;70.30
62011;BME280;47967;51.756;10.174;2023-03-03T11:31:14;100596.63;;;3.75;71.23
62011;BME280;47967;51.756;10.174;2023-03-03T11:35:25;100594.53;;;3.89;70.09
62011;BME280;47967;51.756;10.174;2023-03-03T11:39:31;100596.34;;;3.88;70.17
62011;BME280;47967;51.756;10.174;2023-03-03T11:43:39;100592.63;;;4.00;70.17
62011;BME280;47967;51.756;10.174;2023-03-03T11:47:48;100596.00;;;3.62;70.92
62011;BME280;47967;51.756;10.174;2023-03-03T11:52:02;100597.34;;;3.77;71.20
62011;BME280;47967;51.756;10.174;2023-03-03T11:56:16;100604.41;;;3.57;71.16
62011;BME280;47967;51.756;10.174;2023-03-03T12:00:29;100591.03;;;3.47;71.95
62011;BME280;47967;51.756;10.174;2023-03-03T12:04:38;100591.44;;;3.83;71.66
62011;BME280;47967;51.756;10.174;2023-03-03T12:09:00;100580.72;;;3.64;71.03
62011;BME280;47967;51.756;10.174;2023-03-03T12:13:09;100598.09;;;3.27;71.69
62011;BME280;47967;51.756;10.174;2023-03-03T12:17:26;100585.16;;;2.80;73.95
62011;BME280;47967;51.756;10.174;2023-03-03T12:21:49;100586.31;;;2.66;75.27
62011;BME280;47967;51.756;10.174;2023-03-03T12:25:59;100574.56;;;2.90;74.99
62011;BME280;47967;51.756;10.174;2023-03-03T12:30:12;100578.72;;;2.83;74.80
62011;BME280;47967;51.756;10.174;2023-03-03T12:34:23;100575.00;;;2.74;76.07
62011;BME280;47967;51.756;10.174;2023-03-03T12:38:34;100568.13;;;3.14;74.44
62011;BME280;47967;51.756;10.174;2023-03-03T12:42:54;100554.53;;;3.48;73.12
62011;BME280;47967;51.756;10.174;2023-03-03T12:47:07;100560.91;;;3.04;73.39
62011;BME280;47967;51.756;10.174;2023-03-03T12:55:48;100552.34;;;3.32;73.71
62011;BME280;47967;51.756;10.174;2023-03-03T13:04:30;100544.88;;;3.57;72.05
62011;BME280;47967;51.756;10.174;2023-03-03T13:08:40;100542.66;;;3.72;72.45
62011;BME280;47967;51.756;10.174;2023-03-03T13:12:52;100540.88;;;3.92;71.39
62011;BME280;47967;51.756;10.174;2023-03-03T13:17:04;100543.50;;;3.82;71.14
62011;BME280;47967;51.756;10.174;2023-03-03T13:21:14;100545.47;;;3.70;72.02
62011;BME280;47967;51.756;10.174;2023-03-03T13:25:33;100554.06;;;3.83;71.92
62011;BME280;47967;51.756;10.174;2023-03-03T13:29:41;100545.19;;;3.32;72.69
62011;BME280;47967;51.756;10.174;2023-03-03T13:33:51;100542.66;;;3.31;73.12
62011;BME280;47967;51.756;10.174;2023-03-03T13:37:56;100542.56;;;3.42;72.36
62011;BME280;47967;51.756;10.174;2023-03-03T13:42:02;100528.00;;;3.15;73.02
62011;BME280;47967;51.756;10.174;2023-03-03T13:46:09;100531.81;;;3.23;73.64
62011;BME280;47967;51.756;10.174;2023-03-03T13:50:19;100540.34;;;3.16;72.91
62011;BME280;47967;51.756;10.174;2023-03-03T13:54:35;100535.28;;;3.13;72.99
62011;BME280;47967;51.756;10.174;2023-03-03T13:58:51;100520.97;;;3.14;73.32
62011;BME280;47967;51.756;10.174;2023-03-03T14:03:20;100517.56;;;3.33;72.71
62011;BME280;47967;51.756;10.174;2023-03-03T14:07:32;100511.72;;;3.49;72.59
62011;BME280;47967;51.756;10.174;2023-03-03T14:11:45;100506.28;;;3.80;71.88
62011;BME280;47967;51.756;10.174;2023-03-03T14:15:54;100498.75;;;3.35;72.66
62011;BME280;47967;51.756;10.174;2023-03-03T14:20:02;100505.09;;;3.53;72.23
62011;BME280;47967;51.756;10.174;2023-03-03T14:24:14;100502.78;;;3.29;72.91
62011;BME280;47967;51.756;10.174;2023-03-03T14:28:19;100498.03;;;3.33;73.75
62011;BME280;47967;51.756;10.174;2023-03-03T14:32:25;100492.47;;;3.46;72.86
62011;BME280;47967;51.756;10.174;2023-03-03T14:36:45;100490.44;;;3.38;72.65
62011;BME280;47967;51.756;10.174;2023-03-03T14:40:48;100492.75;;;3.52;74.39
62011;BME280;47967;51.756;10.174;2023-03-03T14:44:53;100488.22;;;3.33;73.63
62011;BME280;47967;51.756;10.174;2023-03-03T14:48:59;100479.00;;;3.57;74.24
62011;BME280;47967;51.756;10.174;2023-03-03T14:53:11;100479.97;;;3.56;72.96
62011;BME280;47967;51.756;10.174;2023-03-03T14:57:17;100486.22;;;3.76;72.91
62011;BME280;47967;51.756;10.174;2023-03-03T15:01:23;100479.75;;;3.79;72.29
62011;BME280;47967;51.756;10.174;2023-03-03T15:05:32;100477.81;;;4.00;71.97
62011;BME280;47967;51.756;10.174;2023-03-03T15:09:37;100487.28;;;3.54;71.91
62011;BME280;47967;51.756;10.174;2023-03-03T15:13:43;100477.41;;;3.35;72.94
62011;BME280;47967;51.756;10.174;2023-03-03T15:17:54;100474.97;;;3.73;72.88
62011;BME280;47967;51.756;10.174;2023-03-03T15:22:02;100474.84;;;3.94;72.50
62011;BME280;47967;51.756;10.174;2023-03-03T15:26:12;100462.19;;;4.25;71.20
62011;BME280;47967;51.756;10.174;2023-03-03T15:30:24;100460.25;;;4.27;70.89
62011;BME280;47967;51.756;10.174;2023-03-03T15:34:37;100466.00;;;4.23;70.46
62011;BME280;47967;51.756;10.174;2023-03-03T15:38:51;100469.22;;;3.77;71.74
62011;BME280;47967;51.756;10.174;2023-03-03T15:43:03;100451.50;;;3.57;72.43
62011;BME280;47967;51.756;10.174;2023-03-03T15:47:33;100455.28;;;3.64;72.61
62011;BME280;47967;51.756;10.174;2023-03-03T15:51:49;100458.31;;;3.40;73.12
62011;BME280;47967;51.756;10.174;2023-03-03T15:56:14;100458.00;;;3.33;74.08
62011;BME280;47967;51.756;10.174;2023-03-03T16:00:31;100460.28;;;3.38;74.56
62011;BME280;47967;51.756;10.174;2023-03-03T16:04:40;100463.81;;;3.07;74.46
62011;BME280;47967;51.756;10.174;2023-03-03T16:08:51;100456.06;;;2.94;74.39
62011;BME280;47967;51.756;10.174;2023-03-03T16:13:07;100456.38;;;3.01;74.66
62011;BME280;47967;51.756;10.174;2023-03-03T16:17:21;100456.50;;;3.40;73.99
62011;BME280;47967;51.756;10.174;2023-03-03T16:21:38;100460.44;;;3.46;73.57
62011;BME280;47967;51.756;10.174;2023-03-03T16:25:55;100459.28;;;3.29;74.06
62011;BME280;47967;51.756;10.174;2023-03-03T16:30:09;100460.69;;;3.33;74.29
62011;BME280;47967;51.756;10.174;2023-03-03T16:34:22;100461.31;;;3.06;74.74
62011;BME280;47967;51.756;10.174;2023-03-03T16:38:31;100454.81;;;2.98;75.06
62011;BME280;47967;51.756;10.174;2023-03-03T16:42:36;100457.56;;;3.18;74.78
62011;BME280;47967;51.756;10.174;2023-03-03T16:46:41;100453.41;;;3.35;73.72
62011;BME280;47967;51.756;10.174;2023-03-03T16:50:53;100456.91;;;3.45;73.76
62011;BME280;47967;51.756;10.174;2023-03-03T16:55:03;100460.63;;;3.54;73.54
62011;BME280;47967;51.756;10.174;2023-03-03T16:59:33;100456.63;;;3.39;73.31
62011;BME280;47967;51.756;10.174;2023-03-03T17:03:49;100463.78;;;2.97;74.84
62011;BME280;47967;51.756;10.174;2023-03-03T17:08:10;100460.09;;;2.88;74.86
62011;BME280;47967;51.756;10.174;2023-03-03T17:12:39;100459.66;;;3.14;74.57
62011;BME280;47967;51.756;10.174;2023-03-03T17:16:50;100465.72;;;2.95;74.78
62011;BME280;47967;51.756;10.174;2023-03-03T17:20:59;100462.66;;;3.00;75.65
62011;BME280;47967;51.756;10.174;2023-03-03T17:25:08;100469.28;;;3.06;75.00
62011;BME280;47967;51.756;10.174;2023-03-03T17:29:22;100468.69;;;2.92;75.70
62011;BME280;47967;51.756;10.174;2023-03-03T17:38:23;100474.53;;;3.17;75.70
62011;BME280;47967;51.756;10.174;2023-03-03T17:42:38;100473.38;;;3.10;75.34
62011;BME280;47967;51.756;10.174;2023-03-03T17:46:47;100478.38;;;2.93;75.45
62011;BME280;47967;51.756;10.174;2023-03-03T17:51:04;100475.56;;;2.95;76.13
62011;BME280;47967;51.756;10.174;2023-03-03T17:55:51;100477.88;;;3.09;75.91
62011;BME280;47967;51.756;10.174;2023-03-03T18:00:05;100481.50;;;3.08;75.25
62011;BME280;47967;51.756;10.174;2023-03-03T18:04:25;100485.44;;;2.83;75.84
62011;BME280;47967;51.756;10.174;2023-03-03T18:08:54;100485.19;;;2.65;76.38
62011;BME280;47967;51.756;10.174;2023-03-03T18:18:01;100484.63;;;2.61;77.69
62011;BME280;47967;51.756;10.174;2023-03-03T18:22:06;100479.81;;;2.55;77.34
62011;BME280;47967;51.756;10.174;2023-03-03T18:26:32;100479.41;;;2.60;77.67
62011;BME280;47967;51.756;10.174;2023-03-03T18:30:56;100474.31;;;2.47;77.32
62011;BME280;47967;51.756;10.174;2023-03-03T18:35:21;100474.78;;;2.19;77.93
62011;BME280;47967;51.756;10.174;2023-03-03T18:39:38;100477.84;;;1.82;78.86
62011;BME280;47967;51.756;10.174;2023-03-03T18:43:52;100486.16;;;1.56;80.01
62011;BME280;47967;51.756;10.174;2023-03-03T18:48:01;100488.22;;;1.30;80.52
62011;BME280;47967;51.756;10.174;2023-03-03T18:52:16;100480.63;;;1.03;81.11
62011;BME280;47967;51.756;10.174;2023-03-03T18:56:42;100489.78;;;0.76;81.52
62011;BME280;47967;51.756;10.174;2023-03-03T19:00:48;100491.69;;;0.27;82.40
62011;BME280;47967;51.756;10.174;2023-03-03T19:04:54;100497.22;;;0.12;83.34
62011;BME280;47967;51.756;10.174;2023-03-03T19:08:57;100492.47;;;0.05;84.77
62011;BME280;47967;51.756;10.174;2023-03-03T19:13:00;100483.78;;;0.03;85.61
62011;BME280;47967;51.756;10.174;2023-03-03T19:21:49;100481.94;;;-0.08;86.48
62011;BME280;47967;51.756;10.174;2023-03-03T19:26:39;100487.41;;;-0.23;86.51
62011;BME280;47967;51.756;10.174;2023-03-03T19:30:53;100491.16;;;-0.38;86.74
62011;BME280;47967;51.756;10.174;2023-03-03T19:35:07;100490.22;;;-0.50;86.28
62011;BME280;47967;51.756;10.174;2023-03-03T19:39:40;100498.94;;;-0.48;85.87
62011;BME280;47967;51.756;10.174;2023-03-03T19:43:52;100500.88;;;-0.26;85.63
62011;BME280;47967;51.756;10.174;2023-03-03T19:48:05;100508.03;;;0.09;85.42
62011;BME280;47967;51.756;10.174;2023-03-03T19:52:20;100495.72;;;0.32;84.46
62011;BME280;47967;51.756;10.174;2023-03-03T19:56:33;100509.06;;;0.55;83.47
62011;BME280;47967;51.756;10.174;2023-03-03T20:00:41;100506.53;;;0.65;82.62
62011;BME280;47967;51.756;10.174;2023-03-03T20:04:56;100509.00;;;0.79;81.88
62011;BME280;47967;51.756;10.174;2023-03-03T20:09:14;100509.84;;;1.03;81.27
62011;BME280;47967;51.756;10.174;2023-03-03T20:13:33;100511.56;;;1.15;80.52
62011;BME280;47967;51.756;10.174;2023-03-03T20:17:45;100506.25;;;1.15;79.89
62011;BME280;47967;51.756;10.174;2023-03-03T20:22:00;100515.16;;;1.25;80.08
62011;BME280;47967;51.756;10.174;2023-03-03T20:26:14;100513.13;;;1.40;80.03
62011;BME280;47967;51.756;10.174;2023-03-03T20:30:27;100506.56;;;1.56;79.68
62011;BME280;47967;51.756;10.174;2023-03-03T20:34:38;100505.38;;;1.37;79.21
62011;BME280;47967;51.756;10.174;2023-03-03T20:38:55;100502.22;;;1.43;79.89
62011;BME280;47967;51.756;10.174;2023-03-03T20:43:03;100505.38;;;1.60;79.37
62011;BME280;47967;51.756;10.174;2023-03-03T20:47:19;100503.78;;;1.69;79.36
62011;BME280;47967;51.756;10.174;2023-03-03T20:51:32;100505.69;;;1.67;79.18
62011;BME280;47967;51.756;10.174;2023-03-03T20:55:50;100506.16;;;1.72;79.26
62011;BME280;47967;51.756;10.174;2023-03-03T21:00:00;100497.47;;;1.70;79.01
62011;BME280;47967;51.756;10.174;2023-03-03T21:04:21;100501.59;;;1.51;79.06
62011;BME280;47967;51.756;10.174;2023-03-03T21:08:55;100496.88;;;1.55;79.43
62011;BME280;47967;51.756;10.174;2023-03-03T21:17:24;100494.47;;;1.63;80.05
62011;BME280;47967;51.756;10.174;2023-03-03T21:21:30;100490.94;;;1.74;79.79
62011;BME280;47967;51.756;10.174;2023-03-03T21:25:47;100480.28;;;1.74;79.57
62011;BME280;47967;51.756;10.174;2023-03-03T21:30:05;100482.94;;;1.74;78.90
62011;BME280;47967;51.756;10.174;2023-03-03T21:34:17;100475.44;;;1.79;79.10
62011;BME280;47967;51.756;10.174;2023-03-03T21:38:32;100471.91;;;1.90;79.02
62011;BME280;47967;51.756;10.174;2023-03-03T21:42:39;100470.38;;;1.76;79.20
62011;BME280;47967;51.756;10.174;2023-03-03T21:46:41;100465.19;;;1.63;79.55
62011;BME280;47967;51.756;10.174;2023-03-03T21:50:44;100456.84;;;1.68;79.41
62011;BME280;47967;51.756;10.174;2023-03-03T21:54:50;100463.88;;;1.69;79.78
62011;BME280;47967;51.756;10.174;2023-03-03T21:58:53;100451.84;;;1.74;79.93
